createdAt,value
2022-08-05T00:02:08.002Z,100975.78
2022-08-05T00:04:37.977Z,100980.22
2022-08-05T00:07:26.789Z,100987.00
2022-08-05T00:09:54.689Z,100983.31
2022-08-05T00:12:21.277Z,100988.13
2022-08-05T00:14:48.513Z,100981.63
2022-08-05T00:17:18.652Z,100979.53
2022-08-05T00:20:02.741Z,100979.53
2022-08-05T00:22:29.695Z,100964.81
2022-08-05T00:24:58.140Z,100965.59
2022-08-05T00:27:28.532Z,100970.00
2022-08-05T00:30:03.736Z,100978.25
2022-08-05T00:32:30.454Z,100977.47
2022-08-05T00:35:06.059Z,100978.31
2022-08-05T00:37:51.267Z,100968.94
2022-08-05T00:40:27.782Z,100971.22
2022-08-05T00:43:00.510Z,100975.41
2022-08-05T00:45:38.057Z,100971.19
2022-08-05T00:48:31.306Z,100963.53
2022-08-05T00:50:59.764Z,100961.44
2022-08-05T00:53:35.302Z,100964.03
2022-08-05T00:56:13.094Z,100959.38
2022-08-05T00:58:44.968Z,100957.56
2022-08-05T01:01:13.093Z,100958.53
2022-08-05T01:03:39.930Z,100940.81
2022-08-05T01:06:11.174Z,100938.41
2022-08-05T01:08:44.307Z,100937.47
2022-08-05T01:11:22.380Z,100940.41
2022-08-05T01:14:08.832Z,100941.53
2022-08-05T01:16:44.310Z,100941.38
2022-08-05T01:19:36.611Z,100937.41
2022-08-05T01:22:35.042Z,100945.59
2022-08-05T01:25:40.119Z,100955.63
2022-08-05T01:28:31.378Z,100948.38
2022-08-05T01:31:26.319Z,100956.00
2022-08-05T01:34:04.575Z,100959.88
2022-08-05T01:36:42.284Z,100957.78
2022-08-05T01:39:15.697Z,100961.28
2022-08-05T01:42:05.274Z,100973.41
2022-08-05T01:44:35.488Z,100982.47
2022-08-05T01:47:05.187Z,101008.31
2022-08-05T01:49:42.809Z,100989.66
2022-08-05T01:52:23.389Z,100941.94
2022-08-05T01:54:57.001Z,100917.00
2022-08-05T01:58:29.164Z,100862.06
2022-08-05T02:00:16.871Z,100827.44
2022-08-05T02:02:54.325Z,100851.81
2022-08-05T02:05:28.652Z,100883.91
2022-08-05T02:08:01.337Z,100875.34
2022-08-05T02:10:36.697Z,100865.31
2022-08-05T02:13:16.369Z,100855.75
2022-08-05T02:15:59.597Z,100849.88
2022-08-05T02:18:34.828Z,100829.50
2022-08-05T02:21:15.014Z,100816.88
2022-08-05T02:23:44.730Z,100815.69
2022-08-05T02:26:15.795Z,100820.34
2022-08-05T02:28:46.354Z,100811.44
2022-08-05T02:31:34.874Z,100818.84
2022-08-05T02:34:09.171Z,100826.28
2022-08-05T02:36:39.073Z,100834.00
2022-08-05T02:39:09.113Z,100839.34
2022-08-05T02:41:57.975Z,100851.47
2022-08-05T02:44:26.606Z,100861.66
2022-08-05T02:47:00.076Z,100879.56
2022-08-05T02:49:35.956Z,100893.56
2022-08-05T02:52:07.892Z,100892.78
2022-08-05T02:54:37.709Z,100877.72
2022-08-05T02:58:11.881Z,100884.34
2022-08-05T02:59:59.443Z,100888.22
2022-08-05T03:02:37.776Z,100889.09
2022-08-05T03:05:07.480Z,100889.47
2022-08-05T03:07:59.341Z,100894.16
2022-08-05T03:10:24.874Z,100905.50
2022-08-05T03:12:53.591Z,100894.31
2022-08-05T03:15:23.655Z,100901.28
2022-08-05T03:17:56.172Z,100916.19
2022-08-05T03:20:25.102Z,100923.34
2022-08-05T03:22:57.306Z,100916.69
2022-08-05T03:26:04.993Z,100911.53
2022-08-05T03:28:19.837Z,100918.44
2022-08-05T03:30:48.192Z,100919.75
2022-08-05T03:33:16.085Z,100920.56
2022-08-05T03:35:45.593Z,100923.31
2022-08-05T03:38:14.322Z,100922.03
2022-08-05T03:40:47.273Z,100920.22
2022-08-05T03:44:09.597Z,100928.69
2022-08-05T03:46:03.889Z,100927.38
2022-08-05T03:48:35.069Z,100928.19
2022-08-05T03:52:37.315Z,100921.88
2022-08-05T03:55:34.061Z,100919.63
2022-08-05T03:56:58.895Z,100917.84
2022-08-05T03:59:47.318Z,100921.88
2022-08-05T04:02:39.194Z,100930.94
2022-08-05T04:05:13.172Z,100939.84
2022-08-05T04:07:57.053Z,100951.69
2022-08-05T04:10:27.507Z,100952.00
2022-08-05T04:12:55.433Z,100944.88
2022-08-05T04:15:26.616Z,100944.53
2022-08-05T04:17:59.945Z,100945.69
2022-08-05T04:20:27.416Z,100946.34
2022-08-05T04:22:55.641Z,100942.13
2022-08-05T04:25:24.182Z,100942.47
2022-08-05T04:28:11.317Z,100954.44
2022-08-05T04:30:39.311Z,100959.00
2022-08-05T04:33:06.256Z,100964.63
2022-08-05T04:36:10.645Z,100968.53
2022-08-05T04:38:20.911Z,100954.94
2022-08-05T04:40:50.918Z,100959.47
2022-08-05T04:43:17.825Z,100956.72
2022-08-05T04:45:55.016Z,100952.34
2022-08-05T04:48:27.320Z,100952.81
2022-08-05T04:51:02.753Z,100958.34
2022-08-05T04:53:36.416Z,100946.84
2022-08-05T04:56:33.839Z,100946.84
2022-08-05T04:58:54.154Z,100952.97
2022-08-05T05:02:06.213Z,100948.94
2022-08-05T05:04:07.106Z,100957.69
2022-08-05T05:06:44.453Z,100942.47
2022-08-05T05:09:14.176Z,100942.78
2022-08-05T05:11:54.445Z,100935.69
2022-08-05T05:14:31.718Z,100934.38
2022-08-05T05:17:00.122Z,100938.25
2022-08-05T05:19:37.157Z,100957.53
2022-08-05T05:22:24.551Z,100956.22
2022-08-05T05:24:58.006Z,100958.50
2022-08-05T05:27:44.213Z,100963.03
2022-08-05T05:30:30.616Z,100972.13
2022-08-05T05:33:13.936Z,100978.56
2022-08-05T05:35:43.408Z,100988.00
2022-08-05T05:38:13.146Z,100984.25
2022-08-05T05:40:47.940Z,100980.22
2022-08-05T05:43:22.270Z,100978.25
2022-08-05T05:46:10.643Z,100980.38
2022-08-05T05:48:44.421Z,100972.75
2022-08-05T05:51:15.210Z,100973.41
2022-08-05T05:53:54.009Z,100977.28
2022-08-05T05:56:31.801Z,100985.06
2022-08-05T05:59:05.581Z,100984.25
2022-08-05T06:01:37.406Z,100994.63
2022-08-05T06:04:13.131Z,101005.16
2022-08-05T06:06:42.906Z,101029.41
2022-08-05T06:09:16.747Z,101001.72
2022-08-05T06:11:48.845Z,100970.31
2022-08-05T06:14:28.877Z,100987.94
2022-08-05T06:16:56.774Z,101000.44
2022-08-05T06:19:34.127Z,100992.34
2022-08-05T06:22:06.699Z,100986.00
2022-08-05T06:24:34.914Z,100990.84
2022-08-05T06:27:03.867Z,100984.56
2022-08-05T06:29:49.250Z,100982.44
2022-08-05T06:32:26.129Z,100982.59
2022-08-05T06:34:57.525Z,100978.41
2022-08-05T06:37:57.020Z,100969.16
2022-08-05T06:40:18.364Z,100969.78
2022-08-05T06:42:52.769Z,100973.84
2022-08-05T06:46:03.411Z,100969.47
2022-08-05T06:48:37.246Z,100978.22
2022-08-05T06:50:55.793Z,100981.44
2022-08-05T06:53:27.665Z,100986.28
2022-08-05T06:55:55.152Z,101006.97
2022-08-05T06:58:35.437Z,101016.81
2022-08-05T07:01:05.919Z,101022.09
2022-08-05T07:03:33.798Z,101024.06
2022-08-05T07:06:06.010Z,101032.75
2022-08-05T07:08:47.988Z,101029.91
2022-08-05T07:11:22.397Z,101043.78
2022-08-05T07:14:15.336Z,101042.03
2022-08-05T07:18:00.418Z,101037.91
2022-08-05T07:22:28.389Z,101020.88
2022-08-05T07:25:24.116Z,101021.00
2022-08-05T07:28:01.489Z,101020.03
2022-08-05T07:30:34.531Z,101019.91
2022-08-05T07:33:09.407Z,101009.69
2022-08-05T07:36:03.189Z,101005.84
2022-08-05T07:38:32.836Z,100999.09
2022-08-05T07:41:34.981Z,100992.47
2022-08-05T07:43:58.117Z,100997.50
2022-08-05T07:46:27.506Z,100991.31
2022-08-05T07:49:01.909Z,100983.38
2022-08-05T07:51:40.826Z,100975.78
2022-08-05T07:54:15.956Z,100980.03
2022-08-05T07:57:13.758Z,100970.50
2022-08-05T07:59:40.396Z,100986.53
2022-08-05T08:02:16.397Z,100997.22
2022-08-05T08:04:48.287Z,100995.41
2022-08-05T08:07:15.564Z,100998.19
2022-08-05T08:09:42.712Z,100984.72
2022-08-05T08:12:19.196Z,100997.03
2022-08-05T08:14:56.582Z,101006.28
2022-08-05T08:17:24.228Z,101002.88
2022-08-05T08:20:21.241Z,101003.19
2022-08-05T08:22:41.964Z,101000.13
2022-08-05T08:25:16.402Z,101008.22
2022-08-05T08:27:45.099Z,101006.59
2022-08-05T08:30:29.744Z,101021.31
2022-08-05T08:33:08.568Z,101009.78
2022-08-05T08:35:41.092Z,101011.06
2022-08-05T08:38:11.662Z,101006.81
2022-08-05T08:40:50.511Z,101027.59
2022-08-05T08:44:57.926Z,101036.25
2022-08-05T08:46:06.226Z,101036.25
2022-08-05T08:49:02.462Z,101043.84
2022-08-05T08:52:04.179Z,101049.88
2022-08-05T08:54:14.379Z,101053.94
2022-08-05T08:56:47.916Z,101042.09
2022-08-05T08:59:20.711Z,101045.50
2022-08-05T09:01:57.314Z,101046.31
2022-08-05T09:04:30.387Z,101045.50
2022-08-05T09:07:01.608Z,101042.59
2022-08-05T09:09:38.086Z,101054.88
2022-08-05T09:12:30.231Z,101052.28
2022-08-05T09:15:05.650Z,101054.22
2022-08-05T09:17:40.526Z,101053.75
2022-08-05T09:20:09.208Z,101062.03
2022-08-05T09:23:19.971Z,101069.03
2022-08-05T09:26:06.493Z,101077.94
2022-08-05T09:28:37.814Z,101081.97
2022-08-05T09:31:22.408Z,101090.41
2022-08-05T09:34:03.518Z,101079.56
2022-08-05T09:36:55.873Z,101067.19
2022-08-05T09:39:45.840Z,101070.47
2022-08-05T09:42:20.276Z,101074.47
2022-08-05T09:44:56.379Z,101079.16
2022-08-05T09:47:36.432Z,101083.88
2022-08-05T09:50:18.193Z,101085.50
2022-08-05T09:53:01.114Z,101077.41
2022-08-05T09:55:58.453Z,101081.63
2022-08-05T09:58:15.724Z,101081.84
2022-08-05T10:01:01.588Z,101075.03
2022-08-05T10:03:58.701Z,101087.16
2022-08-05T10:06:28.081Z,101078.75
2022-08-05T10:08:56.406Z,101074.69
2022-08-05T10:11:24.073Z,101083.25
2022-08-05T10:13:58.208Z,101097.00
2022-08-05T10:16:33.899Z,101106.88
2022-08-05T10:19:04.323Z,101128.41
2022-08-05T10:21:40.165Z,101157.50
2022-08-05T10:24:13.528Z,101190.53
2022-08-05T10:26:49.136Z,101207.34
2022-08-05T10:29:23.937Z,101200.34
2022-08-05T10:32:53.047Z,101185.06
2022-08-05T10:35:00.796Z,101183.06
2022-08-05T10:37:40.461Z,101187.81
2022-08-05T10:40:34.055Z,101186.56
2022-08-05T10:43:43.437Z,101179.53
2022-08-05T10:46:13.257Z,101167.78
2022-08-05T10:48:57.450Z,101163.78
2022-08-05T10:51:28.765Z,101173.84
2022-08-05T10:54:00.924Z,101168.19
2022-08-05T10:56:45.263Z,101176.66
2022-08-05T11:00:02.938Z,101178.78
2022-08-05T11:02:14.788Z,101179.09
2022-08-05T11:05:04.016Z,101179.56
2022-08-05T11:07:32.761Z,101175.38
2022-08-05T11:10:29.216Z,101177.38
2022-08-05T11:12:59.488Z,101181.69
2022-08-05T11:15:43.962Z,101174.44
2022-08-05T11:18:35.082Z,101184.84
2022-08-05T11:21:11.851Z,101190.16
2022-08-05T11:24:04.648Z,101190.50
2022-08-05T11:26:38.264Z,101186.59
2022-08-05T11:29:13.916Z,101205.03
2022-08-05T11:31:57.500Z,101209.03
2022-08-05T11:34:37.555Z,101222.94
2022-08-05T11:37:06.075Z,101221.94
2022-08-05T11:40:00.216Z,101218.97
2022-08-05T11:42:31.657Z,101217.25
2022-08-05T11:45:03.509Z,101225.38
2022-08-05T11:47:49.690Z,101235.06
2022-08-05T11:50:17.189Z,101237.47
2022-08-05T11:52:46.067Z,101241.66
2022-08-05T11:55:15.372Z,101238.38
2022-08-05T11:58:08.205Z,101243.25
2022-08-05T12:00:37.775Z,101238.19
2022-08-05T12:03:28.818Z,101247.59
2022-08-05T12:06:05.852Z,101252.91
2022-08-05T12:08:33.624Z,101257.72
2022-08-05T12:11:05.529Z,101255.84
2022-08-05T12:13:48.628Z,101267.47
2022-08-05T12:16:19.091Z,101257.50
2022-08-05T12:18:52.803Z,101262.38
2022-08-05T12:21:39.246Z,101266.66
2022-08-05T12:24:11.661Z,101263.19
2022-08-05T12:26:47.640Z,101272.09
2022-08-05T12:29:22.971Z,101276.81
2022-08-05T12:32:01.867Z,101284.13
2022-08-05T12:34:31.889Z,101291.41
2022-08-05T12:37:03.290Z,101297.44
2022-08-05T12:39:34.488Z,101295.91
2022-08-05T12:42:09.045Z,101310.59
2022-08-05T12:44:35.849Z,101317.41
2022-08-05T12:47:03.754Z,101316.94
2022-08-05T12:50:04.339Z,101326.09
2022-08-05T12:52:41.753Z,101316.00
2022-08-05T12:55:22.314Z,101317.81
2022-08-05T12:58:49.828Z,101307.41
2022-08-05T13:02:02.843Z,101305.09
2022-08-05T13:03:41.810Z,101298.06
2022-08-05T13:06:16.031Z,101303.53
2022-08-05T13:08:50.818Z,101303.25
2022-08-05T13:12:01.696Z,101287.69
2022-08-05T13:14:20.143Z,101295.16
2022-08-05T13:16:54.266Z,101316.22
2022-08-05T13:19:26.712Z,101314.78
2022-08-05T13:22:01.271Z,101320.63
2022-08-05T13:24:44.976Z,101317.38
2022-08-05T13:27:39.081Z,101319.19
2022-08-05T13:30:35.221Z,101317.72
2022-08-05T13:33:00.948Z,101320.41
2022-08-05T13:35:42.536Z,101323.38
2022-08-05T13:38:28.657Z,101315.09
2022-08-05T13:41:00.737Z,101319.25
2022-08-05T13:43:45.266Z,101315.50
2022-08-05T13:46:14.873Z,101323.44
2022-08-05T13:48:57.717Z,101323.81
2022-08-05T13:51:29.491Z,101325.28
2022-08-05T13:54:03.249Z,101330.00
2022-08-05T13:56:38.709Z,101327.25
2022-08-05T13:59:19.764Z,101333.59
2022-08-05T14:01:58.146Z,101330.63
2022-08-05T14:04:54.264Z,101338.38
2022-08-05T14:07:55.387Z,101337.72
2022-08-05T14:10:18.735Z,101329.66
2022-08-05T14:12:57.080Z,101333.03
2022-08-05T14:16:07.546Z,101345.59
2022-08-05T14:18:17.894Z,101353.72
2022-08-05T14:20:48.921Z,101347.34
2022-08-05T14:23:25.694Z,101349.38
2022-08-05T14:25:58.398Z,101355.50
2022-08-05T14:28:35.621Z,101354.75
2022-08-05T14:31:02.794Z,101357.41
2022-08-05T14:33:56.622Z,101359.84
2022-08-05T14:36:21.252Z,101367.50
2022-08-05T14:38:48.297Z,101366.84
2022-08-05T14:41:14.993Z,101368.31
2022-08-05T14:43:58.833Z,101367.19
2022-08-05T14:46:36.276Z,101374.34
2022-08-05T14:49:07.173Z,101368.03
2022-08-05T14:51:42.893Z,101376.94
2022-08-05T14:54:29.913Z,101372.22
2022-08-05T14:57:01.028Z,101367.69
2022-08-05T14:59:35.730Z,101367.38
2022-08-05T15:02:15.668Z,101370.44
2022-08-05T15:04:43.242Z,101371.22
2022-08-05T15:07:09.885Z,101366.81
2022-08-05T15:09:52.316Z,101365.66
2022-08-05T15:12:23.121Z,101371.00
2022-08-05T15:14:57.399Z,101368.16
2022-08-05T15:17:46.685Z,101368.22
2022-08-05T15:20:18.473Z,101371.13
2022-08-05T15:22:54.129Z,101363.00
2022-08-05T15:25:23.469Z,101376.25
2022-08-05T15:28:08.049Z,101377.19
2022-08-05T15:30:40.001Z,101379.00
2022-08-05T15:33:06.609Z,101367.38
2022-08-05T15:35:36.018Z,101370.72
2022-08-05T15:38:33.087Z,101372.69
2022-08-05T15:41:04.359Z,101369.19
2022-08-05T15:43:45.397Z,101366.44
2022-08-05T15:46:13.309Z,101368.38
2022-08-05T15:48:40.788Z,101364.69
2022-08-05T15:52:04.287Z,101376.09
2022-08-05T15:54:14.951Z,101372.56
2022-08-05T15:56:41.777Z,101372.13
2022-08-05T15:59:08.251Z,101370.03
2022-08-05T16:01:39.839Z,101362.41
2022-08-05T16:04:08.660Z,101368.59
2022-08-05T16:06:37.120Z,101375.88
2022-08-05T16:09:04.140Z,101373.31
2022-08-05T16:11:42.482Z,101373.63
2022-08-05T16:14:10.436Z,101371.34
2022-08-05T16:16:43.976Z,101372.19
2022-08-05T16:19:25.606Z,101384.81
2022-08-05T16:22:02.720Z,101376.72
2022-08-05T16:24:40.172Z,101375.38
2022-08-05T16:27:09.023Z,101375.50
2022-08-05T16:29:38.585Z,101382.81
2022-08-05T16:32:06.453Z,101378.28
2022-08-05T16:34:36.088Z,101383.66
2022-08-05T16:37:03.466Z,101387.31
2022-08-05T16:40:04.982Z,101398.94
2022-08-05T16:42:34.924Z,101404.44
2022-08-05T16:46:02.993Z,101398.50
2022-08-05T16:47:55.583Z,101416.88
2022-08-05T16:50:26.494Z,101411.41
2022-08-05T16:52:52.913Z,101405.88
2022-08-05T16:55:23.205Z,101414.28
2022-08-05T16:58:00.476Z,101420.75
2022-08-05T17:00:34.512Z,101414.16
2022-08-05T17:03:15.204Z,101432.91
2022-08-05T17:05:50.266Z,101432.66
2022-08-05T17:08:36.473Z,101429.56
2022-08-05T17:11:16.542Z,101436.41
2022-08-05T17:13:44.477Z,101448.00
2022-08-05T17:16:32.811Z,101447.56
2022-08-05T17:18:58.623Z,101444.34
2022-08-05T17:21:36.243Z,101448.56
2022-08-05T17:24:19.736Z,101449.03
2022-08-05T17:26:58.297Z,101448.41
2022-08-05T17:29:33.236Z,101462.53
2022-08-05T17:32:00.900Z,101464.47
2022-08-05T17:34:30.017Z,101467.72
2022-08-05T17:36:59.985Z,101467.88
2022-08-05T17:39:34.423Z,101463.34
2022-08-05T17:42:18.520Z,101474.72
2022-08-05T17:44:50.297Z,101485.06
2022-08-05T17:47:22.971Z,101487.97
2022-08-05T17:49:59.501Z,101491.22
2022-08-05T17:52:30.980Z,101491.22
2022-08-05T17:54:58.172Z,101494.22
2022-08-05T17:57:25.764Z,101501.03
2022-08-05T18:00:03.587Z,101501.34
2022-08-05T18:02:35.222Z,101522.94
2022-08-05T18:05:03.473Z,101523.56
2022-08-05T18:07:41.435Z,101526.13
2022-08-05T18:10:11.295Z,101528.72
2022-08-05T18:12:39.096Z,101531.06
2022-08-05T18:15:06.284Z,101536.03
2022-08-05T18:18:00.240Z,101537.09
2022-08-05T18:20:29.415Z,101541.94
2022-08-05T18:23:00.554Z,101553.06
2022-08-05T18:25:38.915Z,101552.22
2022-08-05T18:28:06.665Z,101558.03
2022-08-05T18:30:34.492Z,101563.19
2022-08-05T18:33:01.859Z,101564.22
2022-08-05T18:35:59.615Z,101573.03
2022-08-05T18:38:19.444Z,101577.91
2022-08-05T18:41:55.342Z,101579.06
2022-08-05T18:43:43.205Z,101592.84
2022-08-05T18:46:19.559Z,101591.00
2022-08-05T18:48:51.919Z,101592.13
2022-08-05T18:52:04.745Z,101591.22
2022-08-05T18:54:26.052Z,101599.59
2022-08-05T18:56:54.596Z,101599.59
2022-08-05T18:59:43.995Z,101602.44
2022-08-05T19:02:11.330Z,101605.19
2022-08-05T19:05:02.167Z,101604.56
2022-08-05T19:07:45.231Z,101604.78
2022-08-05T19:10:12.286Z,101607.69
2022-08-05T19:12:38.775Z,101618.66
2022-08-05T19:15:05.801Z,101623.16
2022-08-05T19:17:59.015Z,101630.16
2022-08-05T19:20:34.804Z,101634.47
2022-08-05T19:23:02.648Z,101639.22
2022-08-05T19:25:39.235Z,101637.81
2022-08-05T19:28:10.314Z,101644.50
2022-08-05T19:30:36.809Z,101646.63
2022-08-05T19:33:05.194Z,101658.59
2022-08-05T19:35:56.516Z,101669.06
2022-08-05T19:38:26.415Z,101669.38
2022-08-05T19:40:53.450Z,101672.28
2022-08-05T19:44:04.826Z,101677.03
2022-08-05T19:46:06.320Z,101685.94
2022-08-05T19:48:43.516Z,101684.38
2022-08-05T19:52:05.040Z,101686.38
2022-08-05T19:54:21.658Z,101694.63
2022-08-05T19:56:54.143Z,101692.16
2022-08-05T19:59:51.649Z,101697.97
2022-08-05T20:02:07.669Z,101702.16
2022-08-05T20:04:34.187Z,101708.22
2022-08-05T20:07:01.016Z,101712.66
2022-08-05T20:09:28.590Z,101715.47
2022-08-05T20:12:15.094Z,101705.78
2022-08-05T20:14:41.830Z,101714.91
2022-08-05T20:17:09.895Z,101717.22
2022-08-05T20:19:41.336Z,101727.16
2022-08-05T20:22:09.664Z,101723.97
2022-08-05T20:24:36.215Z,101733.91
2022-08-05T20:27:04.457Z,101732.88
2022-08-05T20:29:38.196Z,101741.78
2022-08-05T20:32:06.502Z,101748.94
2022-08-05T20:34:32.987Z,101747.84
2022-08-05T20:37:01.171Z,101745.94
2022-08-05T20:39:35.422Z,101756.69
2022-08-05T20:42:02.402Z,101765.75
2022-08-05T20:44:29.922Z,101762.78
2022-08-05T20:46:59.796Z,101769.69
2022-08-05T20:49:26.940Z,101776.25
2022-08-05T20:51:55.049Z,101785.81
2022-08-05T20:54:24.703Z,101778.47
2022-08-05T20:56:52.353Z,101780.16
2022-08-05T20:59:26.503Z,101788.66
2022-08-05T21:01:57.243Z,101781.81
2022-08-05T21:04:26.918Z,101792.47
2022-08-05T21:06:54.939Z,101793.88
2022-08-05T21:09:22.665Z,101796.06
2022-08-05T21:12:07.293Z,101792.22
2022-08-05T21:14:36.333Z,101791.41
2022-08-05T21:17:05.458Z,101790.84
2022-08-05T21:19:46.669Z,101788.41
2022-08-05T21:22:14.317Z,101791.44
2022-08-05T21:24:40.888Z,101791.13
2022-08-05T21:27:09.104Z,101795.53
2022-08-05T21:29:40.767Z,101791.72
2022-08-05T21:32:07.531Z,101801.34
2022-08-05T21:34:35.404Z,101802.78
2022-08-05T21:37:02.570Z,101812.34
2022-08-05T21:39:29.714Z,101810.47
2022-08-05T21:42:01.284Z,101812.66
2022-08-05T21:44:32.326Z,101812.66
2022-08-05T21:46:59.625Z,101813.22
2022-08-05T21:49:56.623Z,101814.34
2022-08-05T21:52:23.054Z,101810.25
2022-08-05T21:55:06.788Z,101806.44
2022-08-05T21:57:34.281Z,101801.78
2022-08-05T22:00:06.159Z,101808.66
2022-08-05T22:02:42.868Z,101803.47
2022-08-05T22:05:15.298Z,101795.00
2022-08-05T22:07:59.133Z,101811.97
2022-08-05T22:10:29.220Z,101810.91
2022-08-05T22:12:59.077Z,101818.88
2022-08-05T22:16:01.563Z,101815.03
2022-08-05T22:18:24.856Z,101818.34
2022-08-05T22:20:52.553Z,101820.81
2022-08-05T22:24:02.336Z,101824.94
2022-08-05T22:26:43.004Z,101832.03
2022-08-05T22:29:17.425Z,101836.16
2022-08-05T22:31:45.312Z,101834.25
2022-08-05T22:34:12.842Z,101831.22
2022-08-05T22:36:46.965Z,101838.31
2022-08-05T22:39:19.715Z,101837.50
2022-08-05T22:42:10.151Z,101836.97
2022-08-05T22:44:34.721Z,101846.53
2022-08-05T22:47:01.264Z,101840.81
2022-08-05T22:50:17.855Z,101842.19
2022-08-05T22:52:30.612Z,101842.75
2022-08-05T22:55:01.198Z,101849.56
2022-08-05T22:57:33.961Z,101851.50
2022-08-05T23:00:03.690Z,101856.66
2022-08-05T23:02:30.430Z,101857.78
2022-08-05T23:05:01.946Z,101856.66
2022-08-05T23:07:32.430Z,101862.66
2022-08-05T23:10:10.404Z,101864.84
2022-08-05T23:12:36.848Z,101867.31
2022-08-05T23:15:08.991Z,101868.13
2022-08-05T23:17:59.665Z,101869.75
2022-08-05T23:20:24.399Z,101867.81
2022-08-05T23:22:55.934Z,101874.06
2022-08-05T23:25:50.922Z,101871.34
2022-08-05T23:28:22.879Z,101875.38
2022-08-05T23:30:53.195Z,101878.66
2022-08-05T23:33:26.594Z,101873.38
2022-08-05T23:36:10.456Z,101870.41
2022-08-05T23:38:37.272Z,101877.22
2022-08-05T23:41:03.758Z,101874.47
2022-08-05T23:43:49.696Z,101880.78
2022-08-05T23:46:21.292Z,101886.19
2022-08-05T23:49:00.720Z,101887.00
2022-08-05T23:51:53.663Z,101903.69
2022-08-05T23:54:38.160Z,101910.78
2022-08-05T23:57:06.570Z,101907.47
